createdAt,value
2022-08-11T00:00:44.593Z,14.70
2022-08-11T00:01:44.586Z,14.81
2022-08-11T00:02:44.699Z,14.51
2022-08-11T00:03:44.576Z,14.48
2022-08-11T00:04:44.655Z,14.58
2022-08-11T00:05:44.563Z,14.65
2022-08-11T00:06:44.552Z,14.47
2022-08-11T00:07:44.565Z,14.33
2022-08-11T00:08:44.657Z,14.55
2022-08-11T00:09:44.548Z,14.77
2022-08-11T00:10:44.523Z,14.92
2022-08-11T00:11:44.500Z,14.78
2022-08-11T00:12:44.506Z,14.40
2022-08-11T00:13:44.572Z,14.41
2022-08-11T00:14:44.493Z,14.44
2022-08-11T00:15:44.524Z,14.32
2022-08-11T00:16:44.477Z,14.47
2022-08-11T00:17:44.513Z,14.33
2022-08-11T00:18:44.496Z,14.29
2022-08-11T00:20:14.275Z,14.00
2022-08-11T00:20:45.466Z,14.15
2022-08-11T00:22:02.114Z,14.00
2022-08-11T00:22:45.441Z,13.90
2022-08-11T00:23:44.424Z,13.86
2022-08-11T00:24:52.597Z,14.14
2022-08-11T00:25:45.434Z,14.15
2022-08-11T00:26:44.433Z,14.28
2022-08-11T00:27:44.423Z,14.03
2022-08-11T00:28:44.393Z,13.79
2022-08-11T00:29:51.765Z,13.74
2022-08-11T00:30:45.460Z,13.95
2022-08-11T00:31:44.367Z,14.05
2022-08-11T00:32:44.362Z,13.97
2022-08-11T00:33:45.354Z,13.93
2022-08-11T00:34:44.392Z,13.79
2022-08-11T00:35:51.228Z,13.83
2022-08-11T00:36:45.333Z,13.83
2022-08-11T00:37:44.338Z,13.99
2022-08-11T00:38:44.333Z,14.07
2022-08-11T00:39:44.379Z,14.08
2022-08-11T00:40:44.324Z,14.11
2022-08-11T00:41:44.337Z,14.04
2022-08-11T00:42:44.299Z,13.78
2022-08-11T00:43:44.286Z,13.89
2022-08-11T00:44:44.340Z,13.85
2022-08-11T00:45:44.275Z,13.77
2022-08-11T00:46:44.723Z,13.60
2022-08-11T00:47:44.276Z,13.72
2022-08-11T00:48:44.254Z,13.81
2022-08-11T00:49:44.251Z,13.79
2022-08-11T00:50:44.317Z,13.65
2022-08-11T00:51:57.655Z,13.56
2022-08-11T00:52:45.279Z,13.57
2022-08-11T00:53:44.225Z,13.44
2022-08-11T00:54:44.242Z,13.52
2022-08-11T00:55:47.178Z,13.47
2022-08-11T00:56:45.252Z,13.38
2022-08-11T00:57:44.248Z,13.35
2022-08-11T00:58:44.196Z,13.46
2022-08-11T00:59:45.173Z,13.65
2022-08-11T01:00:44.238Z,13.83
2022-08-11T01:01:44.167Z,13.92
2022-08-11T01:02:44.157Z,13.87
2022-08-11T01:03:44.190Z,13.70
2022-08-11T01:04:44.154Z,13.62
2022-08-11T01:05:44.121Z,13.52
2022-08-11T01:06:44.150Z,13.27
2022-08-11T01:08:01.334Z,13.31
2022-08-11T01:08:45.148Z,13.39
2022-08-11T01:09:44.100Z,13.49
2022-08-11T01:10:44.096Z,13.39
2022-08-11T01:11:55.291Z,13.30
2022-08-11T01:12:45.124Z,13.37
2022-08-11T01:13:44.075Z,13.30
2022-08-11T01:14:45.103Z,13.37
2022-08-11T01:15:57.297Z,13.31
2022-08-11T01:16:45.070Z,13.38
2022-08-11T01:17:44.034Z,13.31
2022-08-11T01:18:44.038Z,13.42
2022-08-11T01:20:45.247Z,13.44
2022-08-11T01:20:49.465Z,13.38
2022-08-11T01:21:44.021Z,13.37
2022-08-11T01:22:44.081Z,13.22
2022-08-11T01:23:44.013Z,13.19
2022-08-11T01:24:44.049Z,13.08
2022-08-11T01:25:56.404Z,12.95
2022-08-11T01:26:44.978Z,12.90
2022-08-11T01:27:43.970Z,13.00
2022-08-11T01:28:43.970Z,13.08
2022-08-11T01:29:49.369Z,13.05
2022-08-11T01:30:43.995Z,13.15
2022-08-11T01:31:43.972Z,13.12
2022-08-11T01:32:43.930Z,13.16
2022-08-11T01:33:43.976Z,12.94
2022-08-11T01:34:43.946Z,12.80
2022-08-11T01:35:43.917Z,12.93
2022-08-11T01:36:44.012Z,12.98
2022-08-11T01:37:43.895Z,12.85
2022-08-11T01:38:43.888Z,12.97
2022-08-11T01:39:43.986Z,13.13
2022-08-11T01:40:43.893Z,13.13
2022-08-11T01:41:43.915Z,13.12
2022-08-11T01:42:43.869Z,12.95
2022-08-11T01:43:43.857Z,12.87
2022-08-11T01:44:43.849Z,12.83
2022-08-11T01:45:43.842Z,12.62
2022-08-11T01:46:43.852Z,12.57
2022-08-11T01:47:53.346Z,12.75
2022-08-11T01:48:44.827Z,12.70
2022-08-11T01:50:07.663Z,12.75
2022-08-11T01:50:44.817Z,12.58
2022-08-11T01:51:45.347Z,12.61
2022-08-11T01:52:45.085Z,12.62
2022-08-11T01:53:43.777Z,12.72
2022-08-11T01:54:43.775Z,12.78
2022-08-11T01:55:43.771Z,12.85
2022-08-11T01:56:43.786Z,12.82
2022-08-11T01:57:43.832Z,12.93
2022-08-11T01:58:44.491Z,13.01
2022-08-11T01:59:43.755Z,12.75
2022-08-11T02:00:43.814Z,12.64
2022-08-11T02:01:43.718Z,12.42
2022-08-11T02:02:43.719Z,12.62
2022-08-11T02:03:43.800Z,12.85
2022-08-11T02:04:43.707Z,13.08
2022-08-11T02:05:43.692Z,13.05
2022-08-11T02:06:43.703Z,13.16
2022-08-11T02:07:43.689Z,13.12
2022-08-11T02:08:44.298Z,13.11
2022-08-11T02:09:49.497Z,12.94
2022-08-11T02:10:50.468Z,12.70
2022-08-11T02:11:44.649Z,12.76
2022-08-11T02:12:52.684Z,12.86
2022-08-11T02:13:44.742Z,13.13
2022-08-11T02:14:43.650Z,12.90
2022-08-11T02:15:44.692Z,12.73
2022-08-11T02:16:43.804Z,12.83
2022-08-11T02:17:43.805Z,12.72
2022-08-11T02:18:43.608Z,12.83
2022-08-11T02:19:45.251Z,12.90
2022-08-11T02:20:43.591Z,13.12
2022-08-11T02:21:43.590Z,13.23
2022-08-11T02:22:43.567Z,13.44
2022-08-11T02:24:05.789Z,13.37
2022-08-11T02:24:45.242Z,13.37
2022-08-11T02:25:43.545Z,13.54
2022-08-11T02:26:43.606Z,13.47
2022-08-11T02:27:43.556Z,13.20
2022-08-11T02:28:46.552Z,13.16
2022-08-11T02:29:43.517Z,12.95
2022-08-11T02:30:43.605Z,12.67
2022-08-11T02:32:25.554Z,12.65
2022-08-11T02:32:44.496Z,12.72
2022-08-11T02:33:43.506Z,12.72
2022-08-11T02:34:43.527Z,12.95
2022-08-11T02:35:44.522Z,13.03
2022-08-11T02:36:43.477Z,12.93
2022-08-11T02:37:43.454Z,12.76
2022-08-11T02:38:43.509Z,12.60
2022-08-11T02:39:43.534Z,12.57
2022-08-11T02:40:43.439Z,12.54
2022-08-11T02:41:43.513Z,12.39
2022-08-11T02:42:44.002Z,12.36
2022-08-11T02:43:51.019Z,12.25
2022-08-11T02:44:44.446Z,12.35
2022-08-11T02:45:43.405Z,12.32
2022-08-11T02:46:43.439Z,12.29
2022-08-11T02:47:43.402Z,12.47
2022-08-11T02:48:43.384Z,12.76
2022-08-11T02:49:43.395Z,12.93
2022-08-11T02:50:43.372Z,12.85
2022-08-11T02:51:44.405Z,12.73
2022-08-11T02:52:43.363Z,12.46
2022-08-11T02:53:43.365Z,12.32
2022-08-11T02:54:44.366Z,12.09
2022-08-11T02:55:48.673Z,12.10
2022-08-11T02:56:44.352Z,12.20
2022-08-11T02:57:43.379Z,12.25
2022-08-11T02:58:43.305Z,12.31
2022-08-11T02:59:43.338Z,12.35
2022-08-11T03:00:43.305Z,12.35
2022-08-11T03:01:43.297Z,12.49
2022-08-11T03:02:43.319Z,12.68
2022-08-11T03:03:43.272Z,12.40
2022-08-11T03:04:43.272Z,12.37
2022-08-11T03:05:43.250Z,12.18
2022-08-11T03:06:43.263Z,12.24
2022-08-11T03:07:43.251Z,12.35
2022-08-11T03:08:43.311Z,12.64
2022-08-11T03:09:43.250Z,12.70
2022-08-11T03:10:43.218Z,12.46
2022-08-11T03:11:43.221Z,12.53
2022-08-11T03:12:43.219Z,12.29
2022-08-11T03:13:43.269Z,12.24
2022-08-11T03:14:43.192Z,12.15
2022-08-11T03:15:44.602Z,12.09
2022-08-11T03:16:43.233Z,11.95
2022-08-11T03:17:43.180Z,12.02
2022-08-11T03:18:43.168Z,12.22
2022-08-11T03:19:43.207Z,12.42
2022-08-11T03:20:43.663Z,12.45
2022-08-11T03:22:01.636Z,12.61
2022-08-11T03:22:44.138Z,12.57
2022-08-11T03:23:43.123Z,12.47
2022-08-11T03:24:43.171Z,12.29
2022-08-11T03:25:43.112Z,12.17
2022-08-11T03:26:43.107Z,12.15
2022-08-11T03:27:43.113Z,12.25
2022-08-11T03:28:43.089Z,12.31
2022-08-11T03:29:43.136Z,12.27
2022-08-11T03:30:43.131Z,12.10
2022-08-11T03:31:43.063Z,12.21
2022-08-11T03:32:43.059Z,12.29
2022-08-11T03:33:43.095Z,12.36
2022-08-11T03:34:43.078Z,12.50
2022-08-11T03:35:43.104Z,12.55
2022-08-11T03:37:15.432Z,12.61
2022-08-11T03:37:44.025Z,12.49
2022-08-11T03:38:43.034Z,12.36
2022-08-11T03:39:56.368Z,12.09
2022-08-11T03:40:44.044Z,11.95
2022-08-11T03:42:01.855Z,11.88
2022-08-11T03:42:45.011Z,11.91
2022-08-11T03:43:45.665Z,12.03
2022-08-11T03:44:44.000Z,12.00
2022-08-11T03:45:42.964Z,11.81
2022-08-11T03:46:42.995Z,11.70
2022-08-11T03:47:53.415Z,11.83
2022-08-11T03:48:43.939Z,11.94
2022-08-11T03:49:42.944Z,11.91
2022-08-11T03:50:42.923Z,11.83
2022-08-11T03:51:44.781Z,11.69
2022-08-11T03:52:43.912Z,11.73
2022-08-11T03:53:42.914Z,11.66
2022-08-11T03:54:42.924Z,11.70
2022-08-11T03:55:42.901Z,11.70
2022-08-11T03:56:42.902Z,11.63
2022-08-11T03:57:42.899Z,11.83
2022-08-11T03:58:46.416Z,11.78
2022-08-11T03:59:42.855Z,11.86
2022-08-11T04:00:42.896Z,11.78
2022-08-11T04:01:42.995Z,11.60
2022-08-11T04:02:42.839Z,11.57
2022-08-11T04:03:42.845Z,11.62
2022-08-11T04:04:45.324Z,11.57
2022-08-11T04:05:43.826Z,11.66
2022-08-11T04:06:42.907Z,11.55
2022-08-11T04:07:42.806Z,11.45
2022-08-11T04:08:42.808Z,11.51
2022-08-11T04:09:42.795Z,11.43
2022-08-11T04:10:42.801Z,11.54
2022-08-11T04:11:42.782Z,11.55
2022-08-11T04:12:47.487Z,11.51
2022-08-11T04:13:43.769Z,11.55
2022-08-11T04:14:42.779Z,11.65
2022-08-11T04:15:42.755Z,11.66
2022-08-11T04:16:42.769Z,11.52
2022-08-11T04:17:42.768Z,11.50
2022-08-11T04:18:42.726Z,11.62
2022-08-11T04:19:42.723Z,11.60
2022-08-11T04:20:42.711Z,11.77
2022-08-11T04:21:42.699Z,11.81
2022-08-11T04:22:42.700Z,11.81
2022-08-11T04:24:36.541Z,11.84
2022-08-11T04:24:48.358Z,11.90
2022-08-11T04:25:57.590Z,11.83
2022-08-11T04:26:43.659Z,12.00
2022-08-11T04:27:42.673Z,12.02
2022-08-11T04:28:43.059Z,11.80
2022-08-11T04:30:02.137Z,11.69
2022-08-11T04:30:43.692Z,11.78
2022-08-11T04:31:51.413Z,11.73
2022-08-11T04:32:43.632Z,11.88
2022-08-11T04:33:42.618Z,11.97
2022-08-11T04:34:42.670Z,12.13
2022-08-11T04:35:44.940Z,12.12
2022-08-11T04:36:43.605Z,12.09
2022-08-11T04:37:42.605Z,12.07
2022-08-11T04:38:42.584Z,12.04
2022-08-11T04:39:43.692Z,11.99
2022-08-11T04:40:42.582Z,12.12
2022-08-11T04:41:42.570Z,12.20
2022-08-11T04:42:42.558Z,12.13
2022-08-11T04:44:05.879Z,12.07
2022-08-11T04:44:43.629Z,11.97
2022-08-11T04:45:42.533Z,11.84
2022-08-11T04:46:42.549Z,12.04
2022-08-11T04:48:01.668Z,12.12
2022-08-11T04:48:43.532Z,12.18
2022-08-11T04:49:42.514Z,12.21
2022-08-11T04:50:42.564Z,12.25
2022-08-11T04:51:43.535Z,12.32
2022-08-11T04:52:42.665Z,12.55
2022-08-11T04:53:42.507Z,12.61
2022-08-11T04:54:42.480Z,12.61
2022-08-11T04:55:42.511Z,12.73
2022-08-11T04:56:42.463Z,12.90
2022-08-11T04:57:42.488Z,12.90
2022-08-11T04:58:42.441Z,12.78
2022-08-11T04:59:42.443Z,12.82
2022-08-11T05:00:42.432Z,12.82
2022-08-11T05:01:42.568Z,12.85
2022-08-11T05:02:42.421Z,12.93
2022-08-11T05:03:42.429Z,12.98
2022-08-11T05:04:42.426Z,13.19
2022-08-11T05:05:42.399Z,13.33
2022-08-11T05:06:43.443Z,13.41
2022-08-11T05:07:42.382Z,13.60
2022-08-11T05:08:42.388Z,13.53
2022-08-11T05:09:42.381Z,13.56
2022-08-11T05:10:43.237Z,13.50
2022-08-11T05:11:42.378Z,13.62
2022-08-11T05:12:42.411Z,13.75
2022-08-11T05:13:42.328Z,13.85
2022-08-11T05:14:42.339Z,13.90
2022-08-11T05:15:43.572Z,13.93
2022-08-11T05:16:42.310Z,14.10
2022-08-11T05:17:42.329Z,14.12
2022-08-11T05:18:42.302Z,14.17
2022-08-11T05:19:42.288Z,14.23
2022-08-11T05:20:42.299Z,14.23
2022-08-11T05:21:44.730Z,14.30
2022-08-11T05:22:42.293Z,14.45
2022-08-11T05:23:42.330Z,14.44
2022-08-11T05:24:42.258Z,14.53
2022-08-11T05:26:44.265Z,14.69
2022-08-11T05:26:48.856Z,14.72
2022-08-11T05:27:43.245Z,14.78
2022-08-11T05:28:42.269Z,14.73
2022-08-11T05:29:42.225Z,14.82
2022-08-11T05:30:42.216Z,14.88
2022-08-11T05:31:42.224Z,14.91
2022-08-11T05:32:42.196Z,15.15
2022-08-11T05:33:42.206Z,15.10
2022-08-11T05:34:42.230Z,15.29
2022-08-11T05:36:01.746Z,15.22
2022-08-11T05:36:43.175Z,15.37
2022-08-11T05:37:42.158Z,15.42
2022-08-11T05:38:42.148Z,15.36
2022-08-11T05:39:42.227Z,15.44
2022-08-11T05:40:42.148Z,15.58
2022-08-11T05:41:43.149Z,15.61
2022-08-11T05:42:42.256Z,15.65
2022-08-11T05:44:19.580Z,15.80
2022-08-11T05:44:43.170Z,15.94
2022-08-11T05:45:57.263Z,15.86
2022-08-11T05:46:43.101Z,16.04
2022-08-11T05:47:42.105Z,16.13
2022-08-11T05:48:42.090Z,16.17
2022-08-11T05:49:42.088Z,16.35
2022-08-11T05:50:42.139Z,16.26
2022-08-11T05:51:44.510Z,16.36
2022-08-11T05:52:43.299Z,16.39
2022-08-11T05:53:46.259Z,16.43
2022-08-11T05:54:42.044Z,16.38
2022-08-11T05:55:58.367Z,16.42
2022-08-11T05:56:43.073Z,16.43
2022-08-11T05:57:51.404Z,16.54
2022-08-11T05:58:43.062Z,16.58
2022-08-11T05:59:43.012Z,16.57
2022-08-11T06:00:41.995Z,16.68
2022-08-11T06:01:42.043Z,16.68
2022-08-11T06:02:41.973Z,16.74
2022-08-11T06:03:41.992Z,16.91
2022-08-11T06:04:42.976Z,16.97
2022-08-11T06:05:44.094Z,16.94
2022-08-11T06:06:45.360Z,17.08
2022-08-11T06:07:48.586Z,17.12
2022-08-11T06:08:42.937Z,17.15
2022-08-11T06:09:41.951Z,17.16
2022-08-11T06:10:41.958Z,17.20
2022-08-11T06:11:43.578Z,17.26
2022-08-11T06:12:41.906Z,17.42
2022-08-11T06:13:41.926Z,17.51
2022-08-11T06:14:41.887Z,17.51
2022-08-11T06:15:41.923Z,17.68
2022-08-11T06:16:41.933Z,17.65
2022-08-11T06:17:41.869Z,17.68
2022-08-11T06:18:41.887Z,17.72
2022-08-11T06:19:41.853Z,17.80
2022-08-11T06:20:41.886Z,17.86
2022-08-11T06:21:41.889Z,17.87
2022-08-11T06:22:41.843Z,17.92
2022-08-11T06:23:41.847Z,17.98
2022-08-11T06:24:42.754Z,18.03
2022-08-11T06:25:41.854Z,18.11
2022-08-11T06:27:01.667Z,18.22
2022-08-11T06:27:43.807Z,18.20
2022-08-11T06:28:41.796Z,18.28
2022-08-11T06:29:48.174Z,18.23
2022-08-11T06:30:42.850Z,18.40
2022-08-11T06:31:41.852Z,18.53
2022-08-11T06:32:41.761Z,18.59
2022-08-11T06:33:41.772Z,18.65
2022-08-11T06:34:41.775Z,18.62
2022-08-11T06:35:41.844Z,18.68
2022-08-11T06:36:41.770Z,18.77
2022-08-11T06:37:41.728Z,18.80
2022-08-11T06:38:41.728Z,18.81
2022-08-11T06:39:41.787Z,18.93
2022-08-11T06:40:41.714Z,19.07
2022-08-11T06:41:41.722Z,19.07
2022-08-11T06:42:41.686Z,19.09
2022-08-11T06:43:41.698Z,19.24
2022-08-11T06:44:42.709Z,19.29
2022-08-11T06:45:41.685Z,19.39
2022-08-11T06:46:41.696Z,19.34
2022-08-11T06:47:41.670Z,19.40
2022-08-11T06:48:41.646Z,19.51
2022-08-11T06:49:41.645Z,19.56
2022-08-11T06:50:41.648Z,19.54
2022-08-11T06:51:41.891Z,19.64
2022-08-11T06:52:41.687Z,19.56
2022-08-11T06:53:41.620Z,19.73
2022-08-11T06:54:41.673Z,19.71
2022-08-11T06:55:55.884Z,19.76
2022-08-11T06:56:42.617Z,19.82
2022-08-11T06:57:41.587Z,20.02
2022-08-11T06:58:41.574Z,20.00
2022-08-11T06:59:41.571Z,20.18
2022-08-11T07:00:41.563Z,20.22
2022-08-11T07:01:41.649Z,20.37
2022-08-11T07:02:41.714Z,20.36
2022-08-11T07:03:41.546Z,20.31
2022-08-11T07:04:41.550Z,20.43
2022-08-11T07:05:41.521Z,20.44
2022-08-11T07:06:51.209Z,20.55
2022-08-11T07:07:42.546Z,20.52
2022-08-11T07:08:41.536Z,20.62
2022-08-11T07:09:41.493Z,20.75
2022-08-11T07:10:41.478Z,20.70
2022-08-11T07:11:41.495Z,20.72
2022-08-11T07:12:41.483Z,20.80
2022-08-11T07:13:45.675Z,20.87
2022-08-11T07:14:41.478Z,21.05
2022-08-11T07:16:11.088Z,21.05
2022-08-11T07:16:42.464Z,21.14
2022-08-11T07:17:41.480Z,21.20
2022-08-11T07:18:41.425Z,21.17
2022-08-11T07:19:41.418Z,21.24
2022-08-11T07:20:41.406Z,21.35
2022-08-11T07:22:00.025Z,21.39
2022-08-11T07:22:42.453Z,21.35
2022-08-11T07:23:41.402Z,21.50
2022-08-11T07:24:59.346Z,21.54
2022-08-11T07:25:43.445Z,21.58
2022-08-11T07:26:41.392Z,21.52
2022-08-11T07:27:41.404Z,21.61
2022-08-11T07:28:41.358Z,21.66
2022-08-11T07:29:41.350Z,21.75
2022-08-11T07:30:41.346Z,21.88
2022-08-11T07:31:41.333Z,21.98
2022-08-11T07:32:41.357Z,21.99
2022-08-11T07:34:07.502Z,22.11
2022-08-11T07:34:42.320Z,22.14
2022-08-11T07:35:41.325Z,22.22
2022-08-11T07:36:41.303Z,22.26
2022-08-11T07:37:41.322Z,22.28
2022-08-11T07:38:41.287Z,22.25
2022-08-11T07:39:41.328Z,22.36
2022-08-11T07:40:41.261Z,22.43
2022-08-11T07:41:41.265Z,22.51
2022-08-11T07:42:42.236Z,22.66
2022-08-11T07:43:41.254Z,22.60
2022-08-11T07:44:41.265Z,22.70
2022-08-11T07:45:41.238Z,22.78
2022-08-11T07:46:41.245Z,22.59
2022-08-11T07:47:41.205Z,22.50
2022-08-11T07:48:41.223Z,22.45
2022-08-11T07:49:41.186Z,22.68
2022-08-11T07:50:41.202Z,22.81
2022-08-11T07:51:41.189Z,22.88
2022-08-11T07:52:41.167Z,22.84
2022-08-11T07:53:41.893Z,23.03
2022-08-11T07:54:42.171Z,23.06
2022-08-11T07:55:51.409Z,23.21
2022-08-11T07:56:55.283Z,23.25
2022-08-11T07:58:14.699Z,23.41
2022-08-11T07:58:45.393Z,23.36
2022-08-11T07:59:59.974Z,23.37
2022-08-11T08:00:42.102Z,23.34
2022-08-11T08:01:41.196Z,23.48
2022-08-11T08:02:41.092Z,23.66
2022-08-11T08:03:54.407Z,23.62
2022-08-11T08:04:45.393Z,23.69
2022-08-11T08:05:41.076Z,23.76
2022-08-11T08:06:41.087Z,23.76
2022-08-11T08:07:41.052Z,23.77
2022-08-11T08:08:41.069Z,23.87
2022-08-11T08:09:41.039Z,23.93
2022-08-11T08:10:41.030Z,24.06
2022-08-11T08:11:41.041Z,24.06
2022-08-11T08:12:41.015Z,24.02
2022-08-11T08:13:41.062Z,23.98
2022-08-11T08:14:41.018Z,24.02
2022-08-11T08:15:40.999Z,24.05
2022-08-11T08:16:40.983Z,24.08
2022-08-11T08:17:40.981Z,24.17
2022-08-11T08:18:41.019Z,24.36
2022-08-11T08:19:40.968Z,24.40
2022-08-11T08:20:40.947Z,24.63
2022-08-11T08:21:40.961Z,24.84
2022-08-11T08:22:43.879Z,24.93
2022-08-11T08:23:41.991Z,24.86
2022-08-11T08:24:40.940Z,24.91
2022-08-11T08:25:40.924Z,24.95
2022-08-11T08:26:40.978Z,24.96
2022-08-11T08:27:40.912Z,25.01
2022-08-11T08:28:40.913Z,25.23
2022-08-11T08:29:40.930Z,25.31
2022-08-11T08:30:40.890Z,25.28
2022-08-11T08:31:40.882Z,25.33
2022-08-11T08:32:42.556Z,25.33
2022-08-11T08:33:40.885Z,25.32
2022-08-11T08:34:40.888Z,25.35
2022-08-11T08:35:54.759Z,25.58
2022-08-11T08:36:41.858Z,25.55
2022-08-11T08:37:45.871Z,25.46
2022-08-11T08:38:41.860Z,25.40
2022-08-11T08:39:40.944Z,25.43
2022-08-11T08:40:40.825Z,25.47
2022-08-11T08:41:40.811Z,25.50
2022-08-11T08:42:45.055Z,25.53
2022-08-11T08:43:48.463Z,25.25
2022-08-11T08:44:44.671Z,25.33
2022-08-11T08:45:40.788Z,25.55
2022-08-11T08:46:40.793Z,25.84
2022-08-11T08:47:42.588Z,25.83
2022-08-11T08:48:40.767Z,25.95
2022-08-11T08:49:40.912Z,25.98
2022-08-11T08:50:40.764Z,26.10
2022-08-11T08:52:01.590Z,26.13
2022-08-11T08:52:43.945Z,26.15
2022-08-11T08:53:52.515Z,26.22
2022-08-11T08:54:41.732Z,26.28
2022-08-11T08:55:45.312Z,26.40
2022-08-11T08:56:41.705Z,26.59
2022-08-11T08:57:40.788Z,26.56
2022-08-11T08:58:40.696Z,26.71
2022-08-11T08:59:48.895Z,26.68
2022-08-11T09:00:41.701Z,26.48
2022-08-11T09:01:40.769Z,26.40
2022-08-11T09:02:40.660Z,26.53
2022-08-11T09:04:04.695Z,26.58
2022-08-11T09:04:42.665Z,26.60
2022-08-11T09:05:40.657Z,26.71
2022-08-11T09:06:40.626Z,26.92
2022-08-11T09:07:41.083Z,27.08
2022-08-11T09:08:40.614Z,27.08
2022-08-11T09:09:40.606Z,27.33
2022-08-11T09:10:40.662Z,27.25
2022-08-11T09:11:40.581Z,27.22
2022-08-11T09:12:40.572Z,27.35
2022-08-11T09:13:40.577Z,27.33
2022-08-11T09:14:40.573Z,27.32
2022-08-11T09:15:40.589Z,27.44
2022-08-11T09:16:40.552Z,27.75
2022-08-11T09:17:40.655Z,27.89
2022-08-11T09:18:40.534Z,27.96
2022-08-11T09:19:40.538Z,28.04
2022-08-11T09:20:40.528Z,28.05
2022-08-11T09:21:48.219Z,28.12
2022-08-11T09:22:41.508Z,28.20
2022-08-11T09:24:42.500Z,28.35
2022-08-11T09:25:40.491Z,28.26
2022-08-11T09:26:40.559Z,28.30
2022-08-11T09:27:40.548Z,28.35
2022-08-11T09:28:40.471Z,28.51
2022-08-11T09:29:40.465Z,28.69
2022-08-11T09:30:40.451Z,28.79
2022-08-11T09:31:40.664Z,28.94
2022-08-11T09:32:40.427Z,29.01
2022-08-11T09:33:40.437Z,29.24
2022-08-11T09:34:40.475Z,29.31
2022-08-11T09:35:40.423Z,29.32
2022-08-11T09:36:40.410Z,29.38
2022-08-11T09:37:55.672Z,29.42
2022-08-11T09:38:44.011Z,29.36
2022-08-11T09:39:40.431Z,29.24
2022-08-11T09:40:40.377Z,29.44
2022-08-11T09:42:01.705Z,29.04
2022-08-11T09:42:41.385Z,29.22
2022-08-11T09:43:40.374Z,29.61
2022-08-11T09:44:40.361Z,29.68
2022-08-11T09:45:40.722Z,29.66
2022-08-11T09:46:40.350Z,29.79
2022-08-11T09:47:40.481Z,29.94
2022-08-11T09:48:40.340Z,30.06
2022-08-11T09:49:40.333Z,29.95
2022-08-11T09:50:40.339Z,29.97
2022-08-11T09:51:41.355Z,30.06
2022-08-11T09:52:52.234Z,30.23
2022-08-11T09:53:41.570Z,30.00
2022-08-11T09:54:41.287Z,29.71
2022-08-11T09:55:40.289Z,29.71
2022-08-11T09:56:40.273Z,29.56
2022-08-11T09:57:40.566Z,29.73
2022-08-11T09:58:42.564Z,28.91
2022-08-11T09:59:40.251Z,28.70
2022-08-11T10:00:40.288Z,28.84
2022-08-11T10:01:40.301Z,29.39
2022-08-11T10:02:40.225Z,29.59
2022-08-11T10:03:40.654Z,29.75
2022-08-11T10:04:41.226Z,29.61
2022-08-11T10:05:40.247Z,29.50
2022-08-11T10:06:40.220Z,29.76
2022-08-11T10:07:40.352Z,30.54
2022-08-11T10:08:40.226Z,31.10
2022-08-11T10:09:40.190Z,31.78
2022-08-11T10:10:40.183Z,32.12
2022-08-11T10:11:40.186Z,32.63
2022-08-11T10:12:40.176Z,32.97
2022-08-11T10:14:30.260Z,33.37
2022-08-11T10:14:44.496Z,33.68
2022-08-11T10:15:40.153Z,33.94
2022-08-11T10:16:41.153Z,34.11
2022-08-11T10:17:40.286Z,33.95
2022-08-11T10:18:40.181Z,33.39
2022-08-11T10:19:40.127Z,33.81
2022-08-11T10:20:40.149Z,33.59
2022-08-11T10:21:40.130Z,33.31
2022-08-11T10:22:40.123Z,33.42
2022-08-11T10:24:00.310Z,33.83
2022-08-11T10:24:41.109Z,33.95
2022-08-11T10:25:40.105Z,34.11
2022-08-11T10:26:40.100Z,34.17
2022-08-11T10:28:16.633Z,33.83
2022-08-11T10:29:02.205Z,33.43
2022-08-11T10:29:45.310Z,33.46
2022-08-11T10:30:42.420Z,33.65
2022-08-11T10:31:45.222Z,34.05
2022-08-11T10:32:57.651Z,34.27
2022-08-11T10:33:49.181Z,34.67
2022-08-11T10:34:41.053Z,34.55
2022-08-11T10:35:41.082Z,34.64
2022-08-11T10:36:40.040Z,34.67
2022-08-11T10:38:07.220Z,34.61
2022-08-11T10:38:41.118Z,34.90
2022-08-11T10:39:40.147Z,34.80
2022-08-11T10:40:40.076Z,34.64
2022-08-11T10:42:01.795Z,34.95
2022-08-11T10:42:57.249Z,34.75
2022-08-11T10:44:02.786Z,34.77
2022-08-11T10:44:42.028Z,34.66
2022-08-11T10:45:39.981Z,34.52
2022-08-11T10:46:39.969Z,34.74
2022-08-11T10:47:46.702Z,35.22
2022-08-11T10:48:41.051Z,35.66
2022-08-11T10:49:39.971Z,35.83
2022-08-11T10:50:39.968Z,35.86
2022-08-11T10:51:52.181Z,35.95
2022-08-11T10:52:40.982Z,35.76
2022-08-11T10:53:39.932Z,35.90
2022-08-11T10:54:39.960Z,36.12
2022-08-11T10:55:39.897Z,36.62
2022-08-11T10:56:39.925Z,36.86
2022-08-11T10:57:40.014Z,36.46
2022-08-11T10:58:39.904Z,36.36
2022-08-11T10:59:39.926Z,36.39
2022-08-11T11:00:39.897Z,36.04
2022-08-11T11:01:39.957Z,35.98
2022-08-11T11:02:39.874Z,35.41
2022-08-11T11:03:39.861Z,34.90
2022-08-11T11:04:39.864Z,34.48
2022-08-11T11:06:27.446Z,34.47
2022-08-11T11:06:40.845Z,34.64
2022-08-11T11:07:44.482Z,35.22
2022-08-11T11:08:39.866Z,35.80
2022-08-11T11:09:39.847Z,35.98
2022-08-11T11:10:39.917Z,35.95
2022-08-11T11:11:39.799Z,35.83
2022-08-11T11:12:39.952Z,35.86
2022-08-11T11:13:39.791Z,35.90
2022-08-11T11:14:46.261Z,36.27
2022-08-11T11:15:39.824Z,36.58
2022-08-11T11:16:39.813Z,37.01
2022-08-11T11:17:39.767Z,37.11
2022-08-11T11:18:39.753Z,37.17
2022-08-11T11:19:39.742Z,36.72
2022-08-11T11:20:43.701Z,36.35
2022-08-11T11:21:42.424Z,36.14
2022-08-11T11:22:39.926Z,36.05
2022-08-11T11:23:39.711Z,36.00
2022-08-11T11:24:39.706Z,35.79
2022-08-11T11:25:39.700Z,35.83
2022-08-11T11:26:39.714Z,36.16
2022-08-11T11:27:46.380Z,36.35
2022-08-11T11:28:40.705Z,36.73
2022-08-11T11:29:39.661Z,36.54
2022-08-11T11:30:39.682Z,36.08
2022-08-11T11:31:39.662Z,36.16
2022-08-11T11:32:39.875Z,35.95
2022-08-11T11:34:06.373Z,36.27
2022-08-11T11:34:52.876Z,36.17
2022-08-11T11:35:40.634Z,36.23
2022-08-11T11:36:39.611Z,36.72
2022-08-11T11:37:39.665Z,36.89
2022-08-11T11:38:39.606Z,36.68
2022-08-11T11:39:39.777Z,36.23
2022-08-11T11:40:39.598Z,36.04
2022-08-11T11:41:39.576Z,36.21
2022-08-11T11:42:39.793Z,35.98
2022-08-11T11:43:39.599Z,35.97
2022-08-11T11:44:39.556Z,35.89
2022-08-11T11:45:39.544Z,35.90
2022-08-11T11:46:39.537Z,36.17
2022-08-11T11:47:39.528Z,35.95
2022-08-11T11:48:39.588Z,36.01
2022-08-11T11:49:39.513Z,36.36
2022-08-11T11:50:39.686Z,36.62
2022-08-11T11:51:40.500Z,36.33
2022-08-11T11:52:39.729Z,35.44
2022-08-11T11:53:39.483Z,35.64
2022-08-11T11:54:39.546Z,36.36
2022-08-11T11:55:39.517Z,36.49
2022-08-11T11:56:39.461Z,36.58
2022-08-11T11:57:39.694Z,36.24
2022-08-11T11:58:39.496Z,36.39
2022-08-11T11:59:39.508Z,36.49
2022-08-11T12:00:43.287Z,36.57
2022-08-11T12:01:40.426Z,36.84
2022-08-11T12:02:40.417Z,36.33
2022-08-11T12:03:39.481Z,36.28
2022-08-11T12:04:39.398Z,35.89
2022-08-11T12:05:39.438Z,36.24
2022-08-11T12:06:39.376Z,35.82
2022-08-11T12:07:39.501Z,35.92
2022-08-11T12:08:39.389Z,36.39
2022-08-11T12:09:39.360Z,36.52
2022-08-11T12:10:39.453Z,36.67
2022-08-11T12:11:39.344Z,36.68
2022-08-11T12:12:39.346Z,36.45
2022-08-11T12:13:39.324Z,35.82
2022-08-11T12:14:39.320Z,34.90
2022-08-11T12:16:31.463Z,35.60
2022-08-11T12:16:40.428Z,35.61
2022-08-11T12:17:39.399Z,35.70
2022-08-11T12:18:39.273Z,36.23
2022-08-11T12:19:39.275Z,36.39
2022-08-11T12:20:40.274Z,36.65
2022-08-11T12:21:39.306Z,36.67
2022-08-11T12:22:40.130Z,36.96
2022-08-11T12:23:39.250Z,37.28
2022-08-11T12:24:39.247Z,37.21
2022-08-11T12:25:39.340Z,37.71
2022-08-11T12:26:39.217Z,37.99
2022-08-11T12:27:39.430Z,38.04
2022-08-11T12:28:39.207Z,38.17
2022-08-11T12:29:41.151Z,36.96
2022-08-11T12:30:39.259Z,37.18
2022-08-11T12:31:39.184Z,37.56
2022-08-11T12:32:39.294Z,37.86
2022-08-11T12:33:39.561Z,38.09
2022-08-11T12:34:40.220Z,38.27
2022-08-11T12:35:39.161Z,37.99
2022-08-11T12:36:40.158Z,38.43
2022-08-11T12:37:39.310Z,38.08
2022-08-11T12:38:39.179Z,37.65
2022-08-11T12:40:16.095Z,37.07
2022-08-11T12:41:11.575Z,37.10
2022-08-11T12:41:41.220Z,37.35
2022-08-11T12:42:39.125Z,37.20
2022-08-11T12:43:39.774Z,37.40
2022-08-11T12:44:40.124Z,37.48
2022-08-11T12:45:39.093Z,37.70
2022-08-11T12:46:39.087Z,37.45
2022-08-11T12:47:39.141Z,37.40
2022-08-11T12:48:58.519Z,37.26
2022-08-11T12:49:45.184Z,37.70
2022-08-11T12:50:39.072Z,37.93
2022-08-11T12:52:11.886Z,37.99
2022-08-11T12:52:40.070Z,37.26
2022-08-11T12:53:39.036Z,36.68